Time;durP1;ratioP1;P1;durP2;ratioP2;P2;SDS_P1;SDS_P2;PMS_P1;PMS_P2;Temp;Humidity;BMP_temperature;BMP_pressure;BME280_temperature;BME280_humidity;BME280_pressure;Samples;Min_cycle;Max_cycle;Signal;HPM_P1;HPM_P2
2023/08/23 00:00:25;;;;;;;6.88;5.03;;;17.10;99.90;;;;;;5034646;28;20040;-76
2023/08/23 00:02:50;;;;;;;6.40;4.97;;;17.20;99.90;;;;;;5034562;28;20443;-76
2023/08/23 00:05:16;;;;;;;11.18;5.65;;;17.20;99.90;;;;;;5052102;28;20045;-76
2023/08/23 00:07:42;;;;;;;7.55;5.70;;;17.30;99.90;;;;;;5033941;28;20559;-76
2023/08/23 00:10:08;;;;;;;8.52;5.50;;;17.20;99.90;;;;;;5050805;28;20041;-76
2023/08/23 00:12:33;;;;;;;7.43;5.55;;;17.30;99.90;;;;;;5034432;28;20045;-76
2023/08/23 00:14:59;;;;;;;8.88;4.88;;;17.00;99.90;;;;;;5034082;28;20496;-76
2023/08/23 00:17:25;;;;;;;7.13;5.50;;;17.30;99.90;;;;;;5017426;28;20155;-76
2023/08/23 00:19:50;;;;;;;8.55;5.55;;;17.30;99.90;;;;;;5051981;28;20052;-76
2023/08/23 00:22:16;;;;;;;13.23;6.60;;;17.30;99.90;;;;;;5034049;28;20044;-76
2023/08/23 00:24:41;;;;;;;6.38;4.63;;;17.00;99.90;;;;;;5017512;28;20048;-76
2023/08/23 00:27:07;;;;;;;7.03;5.22;;;17.00;99.90;;;;;;5033754;28;20613;-76
2023/08/23 00:29:32;;;;;;;5.60;4.10;;;17.20;99.90;;;;;;5033796;28;20103;-76
2023/08/23 00:31:58;;;;;;;4.35;3.88;;;17.20;99.90;;;;;;5034021;28;20045;-76
2023/08/23 00:34:24;;;;;;;5.20;4.10;;;17.20;99.90;;;;;;5034099;28;20053;-76
2023/08/23 00:36:49;;;;;;;5.32;4.03;;;17.20;99.90;;;;;;5033602;28;20048;-76
2023/08/23 00:39:15;;;;;;;3.65;3.13;;;17.10;99.90;;;;;;5033512;28;20048;-76
2023/08/23 00:41:40;;;;;;;3.75;2.88;;;16.90;99.90;;;;;;5033858;28;20040;-76
2023/08/23 00:44:06;;;;;;;2.78;2.08;;;16.80;99.90;;;;;;5051739;28;20091;-76
2023/08/23 00:46:33;;;;;;;2.90;2.20;;;16.90;99.90;;;;;;5017332;28;20563;-76
2023/08/23 00:48:58;;;;;;;2.00;1.70;;;16.90;99.90;;;;;;5033094;28;20053;-76
2023/08/23 00:51:24;;;;;;;3.95;2.00;;;16.70;99.90;;;;;;5017416;28;20103;-76
2023/08/23 00:53:49;;;;;;;2.72;2.20;;;16.90;99.90;;;;;;5051661;28;20033;-76
2023/08/23 00:56:15;;;;;;;4.32;2.80;;;16.80;99.90;;;;;;5033764;28;20083;-76
2023/08/23 00:58:41;;;;;;;4.82;2.90;;;16.90;99.90;;;;;;5033545;28;20492;-76
2023/08/23 01:01:07;;;;;;;6.85;3.33;;;16.80;99.90;;;;;;5033603;28;20044;-76
2023/08/23 01:03:33;;;;;;;5.15;3.55;;;16.70;99.90;;;;;;5033577;28;20120;-76
2023/08/23 01:06:31;;;;;;;5.15;3.75;;;16.90;99.90;;;;;;5016975;28;20028;-76
2023/08/23 01:09:14;;;;;;;4.38;3.70;;;16.80;99.90;;;;;;5033537;28;20443;-76
2023/08/23 01:11:59;;;;;;;4.63;3.38;;;16.80;99.90;;;;;;5033775;28;20048;-76
2023/08/23 01:14:37;;;;;;;4.22;3.28;;;16.80;99.90;;;;;;5017455;28;20453;-76
2023/08/23 01:17:05;;;;;;;3.80;2.92;;;16.80;99.90;;;;;;5033380;28;20052;-76
2023/08/23 01:19:42;;;;;;;4.97;2.95;;;16.70;99.90;;;;;;5033579;28;20056;-76
2023/08/23 01:22:12;;;;;;;3.95;2.88;;;16.50;99.90;;;;;;5019095;28;20051;-76
2023/08/23 01:24:38;;;;;;;4.75;2.78;;;16.60;99.90;;;;;;5037511;28;20045;-76
2023/08/23 01:27:04;;;;;;;3.72;2.72;;;16.30;99.90;;;;;;5020571;28;20041;-76
2023/08/23 01:29:29;;;;;;;4.03;3.38;;;16.40;99.90;;;;;;5037452;28;20043;-76
2023/08/23 01:32:07;;;;;;;4.57;2.72;;;16.30;99.90;;;;;;5037219;28;20037;-76
2023/08/23 01:34:40;;;;;;;5.28;2.70;;;16.20;99.90;;;;;;5037478;28;20048;-76
2023/08/23 01:37:07;;;;;;;4.35;3.05;;;16.40;99.90;;;;;;5037243;28;20099;-76
2023/08/23 01:39:33;;;;;;;4.20;3.03;;;16.20;99.90;;;;;;5037056;28;20048;-76
2023/08/23 01:42:00;;;;;;;4.97;3.53;;;16.40;99.90;;;;;;5037174;28;20073;-76
2023/08/23 01:44:25;;;;;;;5.43;3.60;;;16.30;99.90;;;;;;5036976;28;20049;-76
2023/08/23 01:46:51;;;;;;;7.57;5.15;;;16.10;99.90;;;;;;5036903;28;20119;-76
2023/08/23 01:49:16;;;;;;;5.13;3.88;;;16.10;99.90;;;;;;5037096;28;20029;-76
2023/08/23 01:51:42;;;;;;;9.48;4.38;;;16.20;99.90;;;;;;5036854;28;20033;-76
2023/08/23 01:54:07;;;;;;;4.85;3.83;;;16.00;99.90;;;;;;5037169;28;20044;-76
2023/08/23 01:56:33;;;;;;;4.63;4.10;;;15.90;99.90;;;;;;5037143;28;20044;-76
2023/08/23 01:58:59;;;;;;;5.38;4.40;;;15.90;99.90;;;;;;5036701;28;20036;-76
2023/08/23 02:01:24;;;;;;;5.70;4.60;;;16.10;99.90;;;;;;5036798;28;20565;-76
2023/08/23 02:03:50;;;;;;;5.78;4.57;;;16.10;99.90;;;;;;5036806;28;20055;-76
2023/08/23 02:06:15;;;;;;;6.20;4.47;;;16.10;99.90;;;;;;5036577;28;20037;-76
2023/08/23 02:08:41;;;;;;;5.03;4.30;;;15.80;99.90;;;;;;5036625;28;20048;-76
2023/08/23 02:11:06;;;;;;;5.57;4.40;;;16.10;99.90;;;;;;5036820;28;20382;-76
2023/08/23 02:13:32;;;;;;;4.75;4.00;;;15.90;99.90;;;;;;5036601;28;20484;-76
2023/08/23 02:15:57;;;;;;;5.60;4.10;;;16.00;99.90;;;;;;5036341;28;20178;-76
2023/08/23 02:18:23;;;;;;;5.72;4.38;;;15.70;99.90;;;;;;5036455;28;20132;-76
2023/08/23 02:20:59;;;;;;;4.53;3.95;;;16.00;99.90;;;;;;5036301;28;20040;-76
2023/08/23 02:23:25;;;;;;;5.10;3.80;;;15.70;99.90;;;;;;5036278;28;20089;-76
2023/08/23 02:25:51;;;;;;;5.13;3.88;;;15.70;99.90;;;;;;5036161;28;20124;-76
2023/08/23 02:28:17;;;;;;;4.30;3.50;;;15.70;99.90;;;;;;5035788;28;20191;-76
2023/08/23 02:30:42;;;;;;;4.68;3.60;;;15.60;99.90;;;;;;5036610;28;20033;-75
2023/08/23 02:33:08;;;;;;;3.97;3.22;;;15.60;99.90;;;;;;5034891;28;20072;-75
2023/08/23 02:35:33;;;;;;;4.40;3.65;;;15.40;99.90;;;;;;5036387;28;20048;-75
2023/08/23 02:38:01;;;;;;;4.80;3.45;;;15.50;99.90;;;;;;5035925;28;20045;-75
2023/08/23 02:40:27;;;;;;;6.47;3.65;;;15.30;99.90;;;;;;5036216;28;20051;-75
2023/08/23 02:42:55;;;;;;;5.47;3.90;;;15.30;99.90;;;;;;5009861;28;20029;-75
2023/08/23 02:45:21;;;;;;;10.43;4.85;;;15.40;99.90;;;;;;5019376;28;20128;-75
2023/08/23 02:47:46;;;;;;;5.75;4.53;;;15.60;99.90;;;;;;5019261;28;20112;-75
2023/08/23 02:50:12;;;;;;;6.22;4.65;;;15.40;99.90;;;;;;5019148;28;20418;-75
2023/08/23 02:52:38;;;;;;;7.03;4.63;;;15.50;99.90;;;;;;5036187;28;20099;-75
2023/08/23 02:55:04;;;;;;;6.50;5.00;;;15.50;99.90;;;;;;5019363;28;20040;-75
2023/08/23 02:57:29;;;;;;;5.47;4.40;;;15.30;99.90;;;;;;5019032;28;20056;-75
2023/08/23 02:59:55;;;;;;;6.80;5.05;;;15.40;99.90;;;;;;5035641;28;20076;-75
2023/08/23 03:02:20;;;;;;;5.20;3.88;;;15.50;99.90;;;;;;5019342;28;20052;-75
2023/08/23 03:04:46;;;;;;;4.90;4.03;;;15.40;99.90;;;;;;5035655;28;20041;-75
2023/08/23 03:07:11;;;;;;;4.78;3.90;;;15.40;99.90;;;;;;5035500;28;20086;-75
2023/08/23 03:09:37;;;;;;;6.47;3.70;;;15.20;99.90;;;;;;5035581;28;20062;-75
2023/08/23 03:12:03;;;;;;;5.38;3.63;;;15.50;99.90;;;;;;5035600;28;20043;-75
2023/08/23 03:14:29;;;;;;;4.47;3.05;;;15.40;99.90;;;;;;5035558;28;20081;-75
2023/08/23 03:16:55;;;;;;;3.30;2.63;;;15.10;99.90;;;;;;5035510;28;20052;-75
2023/08/23 03:19:20;;;;;;;5.10;3.20;;;15.40;99.90;;;;;;5018648;28;20435;-76
2023/08/23 03:21:46;;;;;;;4.57;3.58;;;15.00;99.90;;;;;;5035428;28;20401;-75
2023/08/23 03:24:11;;;;;;;4.68;3.85;;;15.40;99.90;;;;;;5035418;28;20048;-75
2023/08/23 03:26:37;;;;;;;4.57;4.13;;;15.20;99.90;;;;;;5035410;28;20030;-75
2023/08/23 03:29:02;;;;;;;4.18;3.75;;;15.40;99.90;;;;;;5035004;28;20041;-75
2023/08/23 03:31:28;;;;;;;7.97;4.30;;;15.50;99.90;;;;;;5034991;28;20500;-75
2023/08/23 03:33:53;;;;;;;4.97;4.07;;;15.40;99.90;;;;;;5034942;28;20499;-75
2023/08/23 03:36:19;;;;;;;5.22;4.07;;;15.10;99.90;;;;;;5035347;28;20382;-75
2023/08/23 03:38:45;;;;;;;5.55;4.53;;;15.20;99.90;;;;;;5034722;28;20044;-75
2023/08/23 03:41:14;;;;;;;5.05;4.07;;;15.30;99.90;;;;;;5052939;28;20073;-75
2023/08/23 03:43:40;;;;;;;5.63;4.03;;;15.30;99.90;;;;;;5034881;28;20063;-75
2023/08/23 03:46:05;;;;;;;5.93;5.03;;;15.30;99.90;;;;;;5052707;28;20574;-75
2023/08/23 03:48:31;;;;;;;5.03;3.97;;;15.00;99.90;;;;;;5052319;28;20033;-75
2023/08/23 03:50:59;;;;;;;7.43;4.85;;;15.30;99.90;;;;;;5052489;28;20110;-75
2023/08/23 03:53:26;;;;;;;5.03;4.28;;;15.20;99.90;;;;;;5034625;28;20071;-75
2023/08/23 03:55:53;;;;;;;4.20;3.80;;;14.90;99.90;;;;;;5035032;28;20124;-75
2023/08/23 03:58:19;;;;;;;6.63;4.28;;;14.90;99.90;;;;;;5034718;28;20037;-75
2023/08/23 04:00:54;;;;;;;5.53;4.95;;;15.20;99.90;;;;;;5034644;28;20047;-75
2023/08/23 04:03:20;;;;;;;5.95;4.32;;;15.10;99.90;;;;;;5052764;28;20040;-75
2023/08/23 04:05:45;;;;;;;6.68;4.18;;;15.20;99.90;;;;;;5034570;28;20618;-75
2023/08/23 04:08:11;;;;;;;5.80;4.78;;;15.20;99.90;;;;;;5034569;28;20041;-75
2023/08/23 04:10:37;;;;;;;5.32;4.30;;;15.30;99.90;;;;;;5034598;28;20408;-75
2023/08/23 04:13:03;;;;;;;4.55;4.10;;;15.00;99.90;;;;;;5034837;28;20040;-75
2023/08/23 04:15:29;;;;;;;5.03;4.13;;;15.30;99.90;;;;;;5034704;28;20457;-75
2023/08/23 04:17:54;;;;;;;5.95;4.53;;;15.20;99.90;;;;;;5034085;28;20041;-75
2023/08/23 04:20:20;;;;;;;6.82;4.68;;;15.00;99.90;;;;;;5018151;28;20132;-75
2023/08/23 04:22:45;;;;;;;6.30;4.78;;;15.20;99.90;;;;;;5052110;28;20803;-75
2023/08/23 04:25:11;;;;;;;5.47;4.50;;;15.10;99.90;;;;;;5034019;28;20063;-75
2023/08/23 04:27:37;;;;;;;6.95;4.93;;;15.00;99.90;;;;;;5052294;28;20029;-75
2023/08/23 04:30:06;;;;;;;6.22;5.20;;;15.00;99.90;;;;;;5034329;28;20045;-75
2023/08/23 04:32:32;;;;;;;6.05;5.15;;;15.20;99.90;;;;;;5034504;28;20040;-75
2023/08/23 04:34:58;;;;;;;7.25;5.13;;;15.30;99.90;;;;;;5052246;28;20044;-75
2023/08/23 04:37:23;;;;;;;5.68;4.88;;;15.10;99.90;;;;;;5017996;28;20052;-75
2023/08/23 04:39:49;;;;;;;5.97;4.90;;;15.10;99.90;;;;;;5033946;28;20045;-75
2023/08/23 04:42:15;;;;;;;6.55;5.03;;;15.40;99.90;;;;;;5033892;28;20037;-75
2023/08/23 04:44:40;;;;;;;6.97;5.47;;;15.20;99.90;;;;;;5033744;28;20128;-75
2023/08/23 04:47:06;;;;;;;6.30;5.38;;;15.40;99.90;;;;;;5033720;28;20037;-75
2023/08/23 04:49:32;;;;;;;6.90;5.68;;;15.40;99.90;;;;;;5033628;28;20066;-75
2023/08/23 04:51:57;;;;;;;7.20;5.70;;;15.40;99.90;;;;;;5033815;28;20040;-76
2023/08/23 04:54:23;;;;;;;9.82;6.22;;;15.50;99.90;;;;;;5033832;28;20037;-76
2023/08/23 04:56:49;;;;;;;7.90;6.30;;;15.60;99.90;;;;;;5035430;28;20047;-76
2023/08/23 04:59:14;;;;;;;7.28;5.93;;;15.20;99.90;;;;;;5055532;28;20094;-76
2023/08/23 05:01:40;;;;;;;7.25;6.30;;;15.40;99.90;;;;;;5068156;28;20029;-77
2023/08/23 05:04:07;;;;;;;7.88;6.78;;;15.30;99.90;;;;;;5058104;28;20491;-77
2023/08/23 05:06:35;;;;;;;8.98;6.65;;;15.40;99.90;;;;;;5058162;28;20040;-76
2023/08/23 05:09:01;;;;;;;9.07;6.45;;;15.30;99.90;;;;;;5057842;28;20066;-77
2023/08/23 05:11:27;;;;;;;7.63;6.82;;;15.50;99.90;;;;;;5058212;28;20063;-76
2023/08/23 05:13:52;;;;;;;7.57;6.32;;;15.20;99.90;;;;;;5041119;28;20396;-76
2023/08/23 05:16:18;;;;;;;9.32;6.18;;;15.20;99.90;;;;;;5057771;28;20490;-77
2023/08/23 05:18:43;;;;;;;9.80;7.40;;;15.20;99.90;;;;;;5057214;28;20522;-76
2023/08/23 05:21:09;;;;;;;8.80;6.88;;;15.30;99.90;;;;;;5057525;28;20236;-77
2023/08/23 05:23:35;;;;;;;10.30;7.15;;;15.50;99.90;;;;;;5057677;28;20040;-76
2023/08/23 05:26:02;;;;;;;8.98;6.78;;;15.40;99.90;;;;;;5040713;28;20553;-77
2023/08/23 05:28:28;;;;;;;9.80;7.55;;;15.60;99.90;;;;;;5057023;28;20036;-76
2023/08/23 05:30:53;;;;;;;8.05;6.63;;;15.90;99.90;;;;;;5057678;28;20173;-76
2023/08/23 05:33:20;;;;;;;14.05;8.63;;;15.80;99.90;;;;;;5057202;28;20040;-76
2023/08/23 05:35:46;;;;;;;12.10;7.47;;;16.10;99.90;;;;;;5040754;28;20127;-76
2023/08/23 05:38:12;;;;;;;14.35;8.32;;;16.10;99.90;;;;;;5075389;28;20067;-76
2023/08/23 05:40:39;;;;;;;11.27;8.38;;;16.60;99.90;;;;;;5057156;28;20044;-76
2023/08/23 05:43:05;;;;;;;10.48;8.25;;;16.70;99.90;;;;;;5057105;28;20052;-77
2023/08/23 05:45:31;;;;;;;12.70;8.82;;;16.30;99.90;;;;;;5057111;28;20051;-77
2023/08/23 05:47:59;;;;;;;10.95;8.50;;;16.80;99.90;;;;;;5056443;28;20041;-76
2023/08/23 05:50:25;;;;;;;11.30;8.40;;;16.80;99.90;;;;;;5040389;28;20048;-77
2023/08/23 05:52:51;;;;;;;11.77;8.00;;;16.50;99.90;;;;;;5057403;28;20044;-77
2023/08/23 05:55:17;;;;;;;11.73;8.40;;;16.60;99.90;;;;;;5056978;28;20144;-76
2023/08/23 05:57:42;;;;;;;12.82;8.82;;;16.40;99.90;;;;;;5074551;28;20480;-76
2023/08/23 06:00:09;;;;;;;11.93;7.88;;;16.50;99.90;;;;;;5056581;28;20170;-76
2023/08/23 06:02:35;;;;;;;10.48;8.00;;;16.80;99.90;;;;;;5039959;28;20041;-75
2023/08/23 06:05:03;;;;;;;12.30;9.30;;;16.90;99.90;;;;;;5056423;28;20045;-76
2023/08/23 06:07:28;;;;;;;11.95;9.60;;;17.00;99.90;;;;;;5055979;28;20051;-75
2023/08/23 06:09:54;;;;;;;15.27;10.30;;;16.60;99.90;;;;;;5056500;28;20079;-76
2023/08/23 06:12:19;;;;;;;15.65;9.75;;;16.80;99.90;;;;;;5056438;28;20089;-76
2023/08/23 06:14:46;;;;;;;11.32;9.23;;;17.00;99.90;;;;;;5056529;28;20129;-76
2023/08/23 06:17:12;;;;;;;11.73;9.43;;;17.20;99.90;;;;;;5039478;28;20036;-75
2023/08/23 06:19:37;;;;;;;12.52;9.60;;;17.60;99.90;;;;;;5056529;28;20389;-75
2023/08/23 06:22:03;;;;;;;15.55;10.63;;;18.10;99.90;;;;;;5075093;28;20062;-74
2023/08/23 06:24:29;;;;;;;15.60;11.02;;;18.20;99.90;;;;;;5074129;28;20090;-75
2023/08/23 06:26:54;;;;;;;16.73;11.52;;;18.10;99.90;;;;;;5073991;28;20537;-75
2023/08/23 06:29:20;;;;;;;20.20;11.88;;;18.70;99.90;;;;;;5056082;28;20032;-77
2023/08/23 06:31:45;;;;;;;19.15;11.55;;;18.70;99.90;;;;;;5073889;28;20079;-75
2023/08/23 06:34:11;;;;;;;18.88;11.57;;;18.90;99.90;;;;;;5039754;28;20051;-76
2023/08/23 06:36:36;;;;;;;16.85;12.10;;;18.70;99.90;;;;;;5056014;28;20366;-76
2023/08/23 06:39:02;;;;;;;20.17;13.52;;;19.20;99.90;;;;;;5039362;28;20044;-75
2023/08/23 06:41:28;;;;;;;21.73;13.27;;;19.30;99.90;;;;;;5055815;28;20040;-76
2023/08/23 06:44:01;;;;;;;20.80;12.63;;;19.10;99.90;;;;;;5074041;28;20128;-76
2023/08/23 06:46:27;;;;;;;19.63;11.98;;;19.50;99.90;;;;;;5063918;28;20541;-76
2023/08/23 06:48:54;;;;;;;18.85;13.27;;;19.50;99.90;;;;;;5052931;28;20128;-76
2023/08/23 06:51:20;;;;;;;18.75;13.52;;;19.90;99.90;;;;;;5053776;28;20078;-76
2023/08/23 06:53:47;;;;;;;23.65;13.85;;;20.00;99.90;;;;;;5035752;28;20045;-76
2023/08/23 06:56:12;;;;;;;20.60;13.15;;;19.80;99.90;;;;;;5035718;28;20033;-76
2023/08/23 06:58:38;;;;;;;18.63;12.70;;;20.10;99.90;;;;;;5018464;28;20041;-76
2023/08/23 07:01:09;;;;;;;16.83;11.98;;;19.70;99.90;;;;;;5035274;28;20612;-76
2023/08/23 07:03:34;;;;;;;17.65;11.32;;;20.20;99.90;;;;;;5053482;28;20052;-76
2023/08/23 07:06:02;;;;;;;15.38;11.77;;;20.10;99.90;;;;;;5035339;28;20037;-77
2023/08/23 07:08:27;;;;;;;16.75;11.70;;;20.10;99.90;;;;;;5035141;28;20124;-76
2023/08/23 07:10:53;;;;;;;18.58;12.95;;;19.80;99.90;;;;;;5035829;28;20067;-76
2023/08/23 07:13:18;;;;;;;19.52;11.68;;;20.30;99.90;;;;;;5035152;28;20040;-77
2023/08/23 07:15:44;;;;;;;13.73;10.27;;;20.40;99.90;;;;;;5035144;28;20049;-77
2023/08/23 07:18:10;;;;;;;14.60;11.30;;;21.10;99.90;;;;;;5033632;28;20043;-76
2023/08/23 07:20:35;;;;;;;14.23;10.48;;;21.20;99.90;;;;;;5034907;28;20086;-76
2023/08/23 07:23:02;;;;;;;13.00;10.20;;;21.70;99.90;;;;;;5037214;28;20500;-75
2023/08/23 07:25:28;;;;;;;16.23;10.65;;;21.90;99.90;;;;;;5032357;28;20500;-76
2023/08/23 07:27:53;;;;;;;16.48;10.48;;;22.00;99.90;;;;;;5034964;28;20040;-76
2023/08/23 07:30:19;;;;;;;14.00;9.93;;;22.50;99.90;;;;;;5035062;28;20029;-77
2023/08/23 07:32:45;;;;;;;13.23;9.75;;;22.60;99.90;;;;;;5035323;28;20045;-74
2023/08/23 07:35:10;;;;;;;13.50;9.05;;;22.60;99.90;;;;;;5018529;28;20041;-74
2023/08/23 07:37:36;;;;;;;13.35;9.43;;;22.60;99.90;;;;;;5053165;28;20041;-77
2023/08/23 07:40:04;;;;;;;12.98;9.45;;;22.20;99.90;;;;;;5034352;28;20119;-76
2023/08/23 07:42:29;;;;;;;11.75;8.63;;;22.00;99.90;;;;;;5034722;28;20100;-76
2023/08/23 07:44:55;;;;;;;10.48;8.13;;;22.00;99.90;;;;;;5034639;28;20041;-74
2023/08/23 07:47:20;;;;;;;9.75;7.57;;;22.10;99.90;;;;;;5032489;28;20072;-72
2023/08/23 07:49:46;;;;;;;10.05;7.82;;;21.70;99.90;;;;;;5052249;28;20033;-72
2023/08/23 07:52:13;;;;;;;11.07;6.72;;;21.90;99.90;;;;;;5034638;28;20101;-72
2023/08/23 07:54:38;;;;;;;10.27;6.70;;;21.90;99.90;;;;;;5033303;28;20526;-72
2023/08/23 07:57:04;;;;;;;8.77;5.38;;;22.10;99.90;;;;;;5017941;28;20049;-72
2023/08/23 07:59:29;;;;;;;7.55;5.05;;;22.30;99.90;;;;;;5034234;28;20052;-72
2023/08/23 08:01:55;;;;;;;7.05;5.32;;;22.30;99.90;;;;;;5052102;28;20037;-73
2023/08/23 08:04:20;;;;;;;9.27;5.43;;;22.10;99.90;;;;;;5051530;28;20116;-73
2023/08/23 08:06:46;;;;;;;8.05;4.93;;;22.00;99.90;;;;;;5031934;28;20174;-72
2023/08/23 08:09:11;;;;;;;8.13;5.32;;;22.10;99.90;;;;;;5033930;28;20040;-72
2023/08/23 08:11:37;;;;;;;6.50;4.22;;;22.40;99.90;;;;;;5047501;28;20049;-72
2023/08/23 08:14:02;;;;;;;8.68;3.85;;;22.80;99.90;;;;;;5043890;28;20033;-72
2023/08/23 08:16:28;;;;;;;6.05;4.05;;;23.10;99.90;;;;;;5051863;28;20033;-72
2023/08/23 08:18:53;;;;;;;5.75;3.33;;;23.50;99.90;;;;;;5033855;28;20033;-73
2023/08/23 08:21:19;;;;;;;6.47;3.42;;;23.60;99.90;;;;;;5030687;28;20037;-73
2023/08/23 08:23:48;;;;;;;4.10;3.25;;;23.80;99.90;;;;;;5016558;28;20400;-73
2023/08/23 08:26:14;;;;;;;9.05;4.18;;;24.00;99.90;;;;;;5042982;28;20044;-73
2023/08/23 08:28:43;;;;;;;5.55;3.35;;;23.90;99.90;;;;;;5044894;28;20033;-72
2023/08/23 08:31:13;;;;;;;4.28;3.00;;;24.30;99.90;;;;;;5048967;28;20095;-74
2023/08/23 08:33:39;;;;;;;5.25;2.90;;;24.10;99.90;;;;;;5051783;28;20124;-73
2023/08/23 08:36:04;;;;;;;5.65;2.47;;;23.90;99.90;;;;;;5033856;28;20119;-73
2023/08/23 08:38:30;;;;;;;4.10;2.75;;;24.00;99.90;;;;;;5031573;28;20103;-73
2023/08/23 08:40:56;;;;;;;2.97;2.20;;;24.20;99.90;;;;;;5031775;28;20041;-73
2023/08/23 08:43:22;;;;;;;4.60;2.45;;;24.10;99.90;;;;;;5032371;28;20033;-72
2023/08/23 08:45:48;;;;;;;3.67;2.10;;;24.50;99.90;;;;;;5046288;28;20587;-72
2023/08/23 08:48:15;;;;;;;5.82;2.35;;;24.30;99.90;;;;;;5043806;28;20200;-72
2023/08/23 08:50:44;;;;;;;4.20;2.58;;;24.30;99.90;;;;;;5033615;28;20064;-72
2023/08/23 08:53:17;;;;;;;5.28;2.72;;;24.50;99.90;;;;;;5051479;28;20123;-72
2023/08/23 08:55:45;;;;;;;6.75;2.53;;;24.10;99.90;;;;;;5033774;28;20047;-72
2023/08/23 08:58:11;;;;;;;7.00;3.40;;;24.10;99.90;;;;;;5043884;28;20037;-72
2023/08/23 09:00:38;;;;;;;6.25;3.20;;;24.00;99.90;;;;;;5051409;28;20072;-72
2023/08/23 09:03:04;;;;;;;7.05;3.38;;;23.90;99.90;;;;;;5051489;28;20068;-72
2023/08/23 09:05:31;;;;;;;7.35;3.50;;;24.20;99.90;;;;;;5049383;28;20040;-72
2023/08/23 09:07:57;;;;;;;6.22;3.38;;;24.30;99.90;;;;;;5033748;28;20439;-73
2023/08/23 09:10:24;;;;;;;8.30;3.35;;;24.30;99.90;;;;;;5051105;28;20036;-74
2023/08/23 09:12:49;;;;;;;5.20;3.00;;;24.30;99.90;;;;;;5051467;28;20087;-74
2023/08/23 09:15:19;;;;;;;7.47;3.55;;;24.20;99.90;;;;;;5017298;28;20040;-72
2023/08/23 09:17:45;;;;;;;5.63;3.55;;;24.10;99.90;;;;;;5033404;28;20127;-74
2023/08/23 09:20:11;;;;;;;5.05;3.17;;;23.90;99.90;;;;;;5033324;28;20166;-74
2023/08/23 09:22:36;;;;;;;8.43;2.60;;;23.90;99.90;;;;;;5033089;28;20048;-74
2023/08/23 09:25:08;;;;;;;4.07;2.53;;;24.20;99.90;;;;;;5016574;28;20087;-73
2023/08/23 09:27:33;;;;;;;3.95;2.63;;;24.30;99.90;;;;;;5050955;28;20094;-73
2023/08/23 09:30:03;;;;;;;5.35;2.70;;;24.30;99.90;;;;;;5014646;28;20505;-74
2023/08/23 09:32:29;;;;;;;7.82;3.17;;;24.20;99.90;;;;;;5050976;28;20561;-74
2023/08/23 09:34:54;;;;;;;7.47;2.90;;;24.30;99.90;;;;;;5033191;28;20128;-73
2023/08/23 09:37:20;;;;;;;6.20;3.38;;;24.10;99.90;;;;;;5050641;28;20119;-73
2023/08/23 09:39:45;;;;;;;5.43;3.72;;;23.90;99.90;;;;;;5050894;28;20508;-73
2023/08/23 09:42:14;;;;;;;4.15;2.80;;;23.70;99.90;;;;;;5051647;28;20047;-73
2023/08/23 09:44:41;;;;;;;5.28;2.78;;;23.50;99.90;;;;;;5054768;28;20055;-74
2023/08/23 09:47:15;;;;;;;5.88;3.70;;;23.50;99.90;;;;;;5036503;28;20044;-73
2023/08/23 09:49:42;;;;;;;5.38;3.70;;;23.50;99.90;;;;;;5054362;28;20078;-74
2023/08/23 09:52:10;;;;;;;3.90;3.30;;;23.70;99.90;;;;;;5020279;28;20041;-74
2023/08/23 09:54:53;;;;;;;6.57;3.67;;;23.60;99.90;;;;;;5054642;28;20045;-73
2023/08/23 09:57:20;;;;;;;10.63;4.72;;;23.70;99.90;;;;;;5036750;28;20119;-74
2023/08/23 09:59:46;;;;;;;7.05;3.70;;;23.80;99.90;;;;;;5054354;28;20041;-74
2023/08/23 10:02:16;;;;;;;7.88;4.10;;;24.00;99.90;;;;;;5054392;28;20128;-74
2023/08/23 10:04:43;;;;;;;7.85;3.65;;;24.00;99.90;;;;;;5054240;28;20550;-73
2023/08/23 10:07:09;;;;;;;8.00;4.07;;;23.90;99.90;;;;;;5054264;28;20550;-73
2023/08/23 10:09:38;;;;;;;7.18;3.65;;;23.70;99.90;;;;;;5054193;28;20587;-74
2023/08/23 10:12:07;;;;;;;7.07;4.05;;;23.80;99.90;;;;;;5054240;28;20037;-74
2023/08/23 10:14:37;;;;;;;7.85;4.20;;;23.70;99.90;;;;;;5034170;28;20041;-73
2023/08/23 10:17:05;;;;;;;6.65;4.18;;;23.60;99.90;;;;;;5053691;28;20033;-74
2023/08/23 10:19:32;;;;;;;10.02;4.70;;;23.70;99.90;;;;;;5053452;28;20033;-74
2023/08/23 10:21:58;;;;;;;8.85;3.42;;;23.70;99.90;;;;;;5054159;28;20036;-74
2023/08/23 10:24:28;;;;;;;8.00;3.80;;;23.90;99.90;;;;;;5054031;28;20124;-74
2023/08/23 10:26:54;;;;;;;9.73;4.95;;;24.30;99.90;;;;;;5053869;28;20029;-74
2023/08/23 10:29:29;;;;;;;9.95;5.18;;;24.30;99.90;;;;;;5035932;28;20041;-75
2023/08/23 10:31:54;;;;;;;8.57;4.57;;;24.30;99.90;;;;;;5054059;28;20041;-74
2023/08/23 10:34:27;;;;;;;6.78;3.75;;;24.20;99.90;;;;;;5054300;28;20561;-74
2023/08/23 10:36:53;;;;;;;6.43;3.53;;;24.10;99.90;;;;;;5035945;28;20534;-74
2023/08/23 10:39:23;;;;;;;8.60;4.20;;;24.10;99.90;;;;;;5035659;28;20048;-74
2023/08/23 10:41:54;;;;;;;8.93;5.05;;;24.20;99.90;;;;;;5035851;28;20567;-74
2023/08/23 10:44:20;;;;;;;6.07;4.30;;;24.10;99.90;;;;;;5053656;28;20041;-74
2023/08/23 10:46:49;;;;;;;5.57;4.50;;;24.40;99.90;;;;;;5035697;28;20048;-75
2023/08/23 10:49:17;;;;;;;11.05;4.43;;;24.60;99.90;;;;;;5035482;28;20112;-75
2023/08/23 10:51:43;;;;;;;7.68;3.67;;;24.50;99.90;;;;;;5035693;28;20093;-74
2023/08/23 10:54:13;;;;;;;7.85;3.78;;;24.30;99.90;;;;;;5034825;28;20033;-74
2023/08/23 10:56:39;;;;;;;8.68;4.57;;;24.00;99.90;;;;;;5035773;28;20113;-72
2023/08/23 10:59:08;;;;;;;5.75;3.67;;;23.80;99.90;;;;;;5019008;28;20559;-71
2023/08/23 11:01:39;;;;;;;5.10;3.60;;;23.80;99.90;;;;;;5053620;28;20041;-70
2023/08/23 11:04:08;;;;;;;7.43;3.80;;;23.80;99.90;;;;;;5052580;28;20647;-70
2023/08/23 11:06:35;;;;;;;7.75;3.95;;;23.90;99.90;;;;;;5035887;28;20033;-70
2023/08/23 11:09:01;;;;;;;7.05;4.15;;;23.80;99.90;;;;;;5035063;28;20051;-70
2023/08/23 11:11:28;;;;;;;6.50;3.38;;;23.80;99.90;;;;;;5035347;28;20041;-70
2023/08/23 11:13:54;;;;;;;8.50;3.55;;;24.10;99.90;;;;;;5032794;28;20041;-70
2023/08/23 11:16:20;;;;;;;5.80;4.38;;;24.40;99.90;;;;;;5052888;28;20036;-70
2023/08/23 11:18:46;;;;;;;11.20;6.85;;;24.40;99.90;;;;;;5052966;28;20389;-70
2023/08/23 11:21:12;;;;;;;11.43;6.25;;;24.50;99.90;;;;;;5052955;28;20092;-70
2023/08/23 11:23:38;;;;;;;13.32;6.28;;;24.40;99.90;;;;;;5052553;28;20040;-70
2023/08/23 11:26:04;;;;;;;10.23;7.45;;;24.40;99.90;;;;;;5052331;28;20447;-70
2023/08/23 11:28:30;;;;;;;13.90;8.15;;;24.50;99.90;;;;;;5052552;28;20544;-70
2023/08/23 11:30:58;;;;;;;7.50;5.60;;;24.60;99.90;;;;;;5035801;28;20045;-70
2023/08/23 11:33:24;;;;;;;11.15;4.80;;;24.80;99.90;;;;;;5052815;28;20052;-70
2023/08/23 11:35:49;;;;;;;8.95;5.35;;;24.90;99.90;;;;;;5034788;28;20041;-70
2023/08/23 11:38:15;;;;;;;7.35;5.22;;;24.90;99.90;;;;;;5052131;28;20037;-70
2023/08/23 11:40:44;;;;;;;8.27;5.35;;;24.70;99.90;;;;;;5052837;28;20408;-70
2023/08/23 11:43:14;;;;;;;6.47;5.30;;;24.50;99.90;;;;;;5018257;28;20072;-71
2023/08/23 11:45:41;;;;;;;10.18;5.38;;;24.40;99.90;;;;;;5052356;28;20048;-70
2023/08/23 11:48:09;;;;;;;5.93;4.80;;;24.30;99.90;;;;;;5034128;28;20055;-70
2023/08/23 11:50:35;;;;;;;8.05;5.47;;;24.30;99.90;;;;;;5052304;28;20040;-69
2023/08/23 11:53:05;;;;;;;6.88;4.70;;;24.50;99.90;;;;;;5052490;28;20056;-70
2023/08/23 11:55:33;;;;;;;8.25;4.43;;;24.40;99.90;;;;;;5034380;28;20033;-71
2023/08/23 11:58:02;;;;;;;8.90;4.30;;;24.40;99.90;;;;;;5017761;28;20123;-70
2023/08/23 12:00:27;;;;;;;6.97;3.50;;;24.30;99.90;;;;;;5046175;28;20044;-70
2023/08/23 12:02:53;;;;;;;5.07;2.95;;;24.30;99.90;;;;;;5034423;28;20136;-70
2023/08/23 12:05:19;;;;;;;4.78;3.03;;;24.40;99.90;;;;;;5033862;28;20052;-70
2023/08/23 12:07:47;;;;;;;7.53;3.20;;;24.50;99.90;;;;;;5050546;28;20043;-70
2023/08/23 12:10:14;;;;;;;6.40;3.55;;;24.60;99.90;;;;;;5043370;28;20042;-70
2023/08/23 12:12:39;;;;;;;5.70;3.28;;;24.60;99.90;;;;;;5033127;28;20047;-69
2023/08/23 12:15:06;;;;;;;4.88;2.83;;;24.70;99.90;;;;;;5051901;28;20112;-70
2023/08/23 12:17:32;;;;;;;5.30;2.72;;;24.70;99.90;;;;;;5033786;28;20045;-70
2023/08/23 12:19:58;;;;;;;4.95;3.28;;;24.70;99.90;;;;;;5033830;28;20116;-70
2023/08/23 12:22:24;;;;;;;4.00;3.00;;;24.80;99.90;;;;;;5034106;28;20123;-70
2023/08/23 12:24:49;;;;;;;6.35;2.55;;;24.80;99.90;;;;;;5040786;28;20120;-70
2023/08/23 12:27:15;;;;;;;4.80;2.67;;;24.90;99.90;;;;;;5071491;28;20090;-70
2023/08/23 12:29:41;;;;;;;5.75;2.92;;;24.80;99.90;;;;;;5053890;28;20042;-70
2023/08/23 12:32:07;;;;;;;5.30;2.70;;;24.90;99.90;;;;;;5037119;28;20534;-70
2023/08/23 12:34:33;;;;;;;6.88;2.55;;;24.90;99.90;;;;;;5053734;28;20044;-69
2023/08/23 12:36:59;;;;;;;5.13;2.55;;;24.80;99.90;;;;;;5071672;28;20048;-69
2023/08/23 12:39:25;;;;;;;3.17;1.92;;;24.60;99.90;;;;;;5040715;28;20083;-70